Terminal Aerodrome Forecast
Issued by NWS Cleveland, OH

Home | Current Version | Previous Version | Text Only | Print | Product List | Glossary Off
Versions: 1 2 3 4 5 6 7 8 9 10 11 12 13 14 15 16 17 18 19

000
FTUS41 KCLE 250539
TAFERI
TAF
KERI 250539Z 2506/2606 22008KT P6SM SCT035 OVC060
      TEMPO 2506/2510 5SM -SHRA OVC035
     FM251000 24006KT P6SM BKN035
      TEMPO 2510/2514 5SM -SHRA OVC035
     FM251400 27010G20KT P6SM BKN035
     FM251900 27010G20KT P6SM BKN050
     FM260000 25006KT P6SM BKN035 OVC060
      TEMPO 2600/2604 5SM -SHRA SCT020 OVC035=

USA.gov is the U.S. government's official web portal to all federal, state and local government web resources and services.